createdAt,value
2018-07-22T00:00:34.742Z,932.76
2018-07-22T00:01:34.779Z,932.81
2018-07-22T00:02:34.833Z,932.79
2018-07-22T00:03:34.869Z,932.75
2018-07-22T00:04:34.929Z,932.80
2018-07-22T00:05:34.977Z,932.88
2018-07-22T00:06:35.002Z,932.81
2018-07-22T00:07:35.050Z,932.83
2018-07-22T00:08:35.101Z,932.86
2018-07-22T00:09:35.111Z,932.82
2018-07-22T00:10:35.171Z,932.88
2018-07-22T00:11:35.204Z,932.85
2018-07-22T00:12:35.291Z,932.93
2018-07-22T00:13:35.295Z,932.88
2018-07-22T00:14:35.370Z,932.91
2018-07-22T00:15:35.388Z,932.91
2018-07-22T00:16:35.412Z,932.93
2018-07-22T00:17:35.460Z,932.94
2018-07-22T00:18:35.515Z,932.97
2018-07-22T00:19:35.531Z,932.97
2018-07-22T00:20:35.576Z,932.99
2018-07-22T00:21:35.699Z,932.97
2018-07-22T00:22:35.672Z,933.01
2018-07-22T00:23:35.749Z,933.00
2018-07-22T00:24:35.762Z,933.03
2018-07-22T00:25:35.784Z,933.04
2018-07-22T00:26:35.903Z,933.02
2018-07-22T00:27:35.891Z,933.02
2018-07-22T00:28:35.928Z,933.00
2018-07-22T00:29:35.993Z,933.05
2018-07-22T00:30:36.023Z,933.02
2018-07-22T00:31:36.066Z,933.01
2018-07-22T00:32:36.088Z,933.04
2018-07-22T00:33:36.135Z,932.98
2018-07-22T00:34:36.203Z,933.02
2018-07-22T00:35:36.268Z,933.01
2018-07-22T00:36:36.342Z,933.01
2018-07-22T00:37:36.326Z,933.06
2018-07-22T00:38:36.355Z,933.03
2018-07-22T00:39:36.418Z,933.04
2018-07-22T00:40:36.443Z,933.02
2018-07-22T00:41:36.511Z,933.11
2018-07-22T00:42:36.581Z,933.13
2018-07-22T00:43:36.586Z,933.14
2018-07-22T00:44:36.642Z,933.24
2018-07-22T00:45:36.666Z,933.18
2018-07-22T00:46:36.718Z,933.19
2018-07-22T00:47:36.762Z,933.23
2018-07-22T00:48:36.807Z,933.29
2018-07-22T00:49:36.851Z,933.26
2018-07-22T00:50:36.892Z,933.21
2018-07-22T00:51:36.909Z,933.27
2018-07-22T00:52:36.981Z,933.24
2018-07-22T00:53:37.059Z,933.25
2018-07-22T00:54:37.032Z,933.24
2018-07-22T00:55:37.097Z,933.23
2018-07-22T00:56:37.132Z,933.19
2018-07-22T00:57:37.179Z,933.17
2018-07-22T00:58:37.227Z,933.23
2018-07-22T00:59:37.261Z,933.24
2018-07-22T01:00:37.352Z,933.24
2018-07-22T01:01:37.354Z,933.24
2018-07-22T01:02:37.378Z,933.27
2018-07-22T01:03:37.462Z,933.28
2018-07-22T01:04:37.461Z,933.31
2018-07-22T01:05:37.491Z,933.33
2018-07-22T01:06:37.576Z,933.30
2018-07-22T01:07:37.614Z,933.30
2018-07-22T01:08:37.643Z,933.32
2018-07-22T01:09:37.751Z,933.37
2018-07-22T01:10:37.773Z,933.32
2018-07-22T01:11:37.768Z,933.29
2018-07-22T01:12:37.830Z,933.36
2018-07-22T01:13:37.858Z,933.32
2018-07-22T01:14:37.919Z,933.37
2018-07-22T01:15:38.005Z,933.34
2018-07-22T01:16:38.004Z,933.37
2018-07-22T01:17:38.033Z,933.34
2018-07-22T01:18:38.072Z,933.38
2018-07-22T01:19:38.363Z,933.40
2018-07-22T01:20:38.180Z,933.42
2018-07-22T01:21:38.208Z,933.42
2018-07-22T01:22:38.263Z,933.47
2018-07-22T01:23:38.284Z,933.42
2018-07-22T01:24:38.333Z,933.42
2018-07-22T01:25:38.373Z,933.44
2018-07-22T01:26:38.406Z,933.45
2018-07-22T01:27:38.486Z,933.41
2018-07-22T01:28:38.509Z,933.45
2018-07-22T01:29:38.547Z,933.39
2018-07-22T01:30:39.191Z,933.43
2018-07-22T01:31:38.638Z,933.41
2018-07-22T01:32:38.698Z,933.37
2018-07-22T01:33:38.737Z,933.38
2018-07-22T01:34:38.780Z,933.42
2018-07-22T01:35:38.828Z,933.45
2018-07-22T01:36:38.878Z,933.37
2018-07-22T01:37:38.889Z,933.39
2018-07-22T01:38:38.917Z,933.40
2018-07-22T01:39:38.978Z,933.43
2018-07-22T01:40:39.040Z,933.41
2018-07-22T01:41:39.054Z,933.43
2018-07-22T01:42:39.104Z,933.42
2018-07-22T01:43:39.155Z,933.43
2018-07-22T01:44:39.196Z,933.41
2018-07-22T01:45:39.284Z,933.38
2018-07-22T01:46:39.286Z,933.38
2018-07-22T01:47:39.375Z,933.34
2018-07-22T01:48:39.376Z,933.39
2018-07-22T01:49:39.468Z,933.41
2018-07-22T01:50:39.448Z,933.44
2018-07-22T01:51:39.524Z,933.45
2018-07-22T01:52:39.553Z,933.46
2018-07-22T01:53:39.565Z,933.45
2018-07-22T01:54:39.611Z,933.45
2018-07-22T01:55:39.877Z,933.47
2018-07-22T01:56:39.708Z,933.51
2018-07-22T01:57:39.754Z,933.49
2018-07-22T01:58:39.797Z,933.45
2018-07-22T01:59:39.833Z,933.46
2018-07-22T02:00:39.923Z,933.46
2018-07-22T02:01:39.970Z,933.46
2018-07-22T02:02:40.010Z,933.44
2018-07-22T02:03:40.017Z,933.41
2018-07-22T02:04:40.077Z,933.41
2018-07-22T02:05:40.100Z,933.36
2018-07-22T02:06:40.138Z,933.44
2018-07-22T02:07:40.166Z,933.47
2018-07-22T02:08:40.266Z,933.44
2018-07-22T02:09:40.256Z,933.48
2018-07-22T02:10:40.362Z,933.48
2018-07-22T02:11:40.318Z,933.42
2018-07-22T02:12:40.402Z,933.45
2018-07-22T02:13:40.439Z,933.49
2018-07-22T02:14:40.467Z,933.56
2018-07-22T02:15:40.532Z,933.49
2018-07-22T02:16:40.738Z,933.50
2018-07-22T02:17:40.648Z,933.45
2018-07-22T02:18:40.645Z,933.51
2018-07-22T02:19:40.758Z,933.51
2018-07-22T02:20:40.716Z,933.49
2018-07-22T02:21:40.801Z,933.51
2018-07-22T02:22:40.827Z,933.54
2018-07-22T02:23:40.882Z,933.53
2018-07-22T02:24:40.900Z,933.44
2018-07-22T02:25:40.977Z,933.48
2018-07-22T02:26:40.987Z,933.54
2018-07-22T02:27:41.227Z,933.50
2018-07-22T02:28:41.075Z,933.49
2018-07-22T02:29:41.118Z,933.50
2018-07-22T02:30:41.160Z,933.52
2018-07-22T02:31:41.215Z,933.52
2018-07-22T02:32:41.222Z,933.53
2018-07-22T02:33:41.287Z,933.53
2018-07-22T02:34:41.391Z,933.52
2018-07-22T02:35:41.402Z,933.48
2018-07-22T02:36:41.434Z,933.51
2018-07-22T02:37:41.479Z,933.48
2018-07-22T02:38:41.524Z,933.52
2018-07-22T02:39:41.574Z,933.50
2018-07-22T02:40:41.631Z,933.48
2018-07-22T02:41:41.692Z,933.49
2018-07-22T02:42:41.682Z,933.54
2018-07-22T02:43:41.721Z,933.56
2018-07-22T02:44:41.755Z,933.62
2018-07-22T02:45:41.820Z,933.56
2018-07-22T02:46:41.873Z,933.62
2018-07-22T02:47:41.880Z,933.62
2018-07-22T02:48:41.934Z,933.60
2018-07-22T02:49:41.976Z,933.56
2018-07-22T02:50:42.035Z,933.57
2018-07-22T02:51:42.043Z,933.53
2018-07-22T02:52:42.095Z,933.51
2018-07-22T02:53:42.132Z,933.52
2018-07-22T02:54:42.208Z,933.53
2018-07-22T02:55:42.201Z,933.54
2018-07-22T02:56:42.283Z,933.55
2018-07-22T02:57:42.310Z,933.58
2018-07-22T02:58:42.358Z,933.55
2018-07-22T02:59:42.414Z,933.52
2018-07-22T03:00:42.431Z,933.50
2018-07-22T03:01:42.727Z,933.45
2018-07-22T03:02:42.533Z,933.44
2018-07-22T03:03:42.570Z,933.39
2018-07-22T03:04:42.595Z,933.47
2018-07-22T03:05:42.662Z,933.42
2018-07-22T03:06:42.710Z,933.44
2018-07-22T03:07:42.784Z,933.46
2018-07-22T03:08:42.797Z,933.42
2018-07-22T03:09:42.810Z,933.43
2018-07-22T03:10:42.875Z,933.42
2018-07-22T03:11:42.914Z,933.44
2018-07-22T03:12:43.163Z,933.49
2018-07-22T03:13:43.003Z,933.44
2018-07-22T03:14:43.071Z,933.48
2018-07-22T03:15:43.063Z,933.43
2018-07-22T03:16:43.116Z,933.47
2018-07-22T03:17:43.170Z,933.46
2018-07-22T03:18:43.221Z,933.47
2018-07-22T03:19:43.264Z,933.47
2018-07-22T03:20:43.292Z,933.40
2018-07-22T03:21:43.392Z,933.47
2018-07-22T03:22:43.374Z,933.42
2018-07-22T03:23:43.487Z,933.42
2018-07-22T03:24:43.467Z,933.43
2018-07-22T03:25:43.501Z,933.40
2018-07-22T03:26:43.559Z,933.42
2018-07-22T03:27:43.809Z,933.37
2018-07-22T03:28:43.648Z,933.40
2018-07-22T03:29:43.665Z,933.38
2018-07-22T03:30:43.745Z,933.39
2018-07-22T03:31:43.798Z,933.43
2018-07-22T03:32:43.814Z,933.40
2018-07-22T03:33:43.859Z,933.38
2018-07-22T03:34:43.925Z,933.37
2018-07-22T03:35:43.945Z,933.33
2018-07-22T03:36:43.990Z,933.34
2018-07-22T03:37:44.034Z,933.35
2018-07-22T03:38:44.109Z,933.34
2018-07-22T03:39:44.100Z,933.33
2018-07-22T03:40:44.154Z,933.31
2018-07-22T03:41:44.233Z,933.28
2018-07-22T03:42:44.267Z,933.27
2018-07-22T03:43:44.255Z,933.32
2018-07-22T03:44:44.331Z,933.24
2018-07-22T03:45:44.361Z,933.25
2018-07-22T03:46:44.419Z,933.25
2018-07-22T03:47:44.460Z,933.24
2018-07-22T03:48:44.490Z,933.24
2018-07-22T03:49:44.538Z,933.20
2018-07-22T03:50:44.576Z,933.19
2018-07-22T03:51:44.611Z,933.19
2018-07-22T03:52:44.655Z,933.14
2018-07-22T03:53:44.698Z,933.16
2018-07-22T03:54:44.758Z,933.15
2018-07-22T03:55:44.777Z,933.15
2018-07-22T03:56:44.863Z,933.14
2018-07-22T03:57:44.883Z,933.14
2018-07-22T03:58:44.910Z,933.11
2018-07-22T03:59:45.022Z,933.15
2018-07-22T04:00:44.989Z,933.14
2018-07-22T04:01:45.082Z,933.18
2018-07-22T04:02:45.088Z,933.20
2018-07-22T04:03:45.181Z,933.20
2018-07-22T04:04:45.188Z,933.19
2018-07-22T04:05:45.210Z,933.21
2018-07-22T04:06:45.299Z,933.20
2018-07-22T04:07:45.319Z,933.18
2018-07-22T04:08:45.389Z,933.17
2018-07-22T04:09:45.422Z,933.17
2018-07-22T04:10:45.491Z,933.17
2018-07-22T04:11:45.464Z,933.16
2018-07-22T04:12:45.538Z,933.15
2018-07-22T04:13:45.538Z,933.14
2018-07-22T04:14:45.597Z,933.16
2018-07-22T04:15:45.655Z,933.15
2018-07-22T04:16:45.667Z,933.12
2018-07-22T04:17:45.929Z,933.13
2018-07-22T04:18:45.767Z,933.04
2018-07-22T04:19:45.828Z,933.09
2018-07-22T04:20:45.840Z,933.04
2018-07-22T04:21:45.878Z,933.04
2018-07-22T04:22:45.922Z,933.08
2018-07-22T04:23:45.989Z,933.03
2018-07-22T04:24:46.025Z,933.08
2018-07-22T04:25:46.108Z,932.99
2018-07-22T04:26:46.105Z,932.98
2018-07-22T04:27:46.165Z,932.96
2018-07-22T04:28:46.427Z,932.95
2018-07-22T04:29:46.218Z,932.92
2018-07-22T04:30:46.329Z,932.95
2018-07-22T04:31:46.377Z,932.95
2018-07-22T04:32:46.364Z,932.99
2018-07-22T04:33:46.397Z,932.95
2018-07-22T04:34:46.474Z,932.99
2018-07-22T04:35:46.509Z,932.95
2018-07-22T04:36:46.530Z,932.94
2018-07-22T04:37:46.587Z,932.90
2018-07-22T04:38:46.616Z,932.93
2018-07-22T04:39:46.910Z,932.88
2018-07-22T04:40:46.735Z,932.84
2018-07-22T04:41:46.768Z,932.88
2018-07-22T04:42:46.806Z,932.78
2018-07-22T04:43:46.853Z,932.82
2018-07-22T04:44:46.892Z,932.77
2018-07-22T04:45:46.964Z,932.77
2018-07-22T04:46:46.974Z,932.76
2018-07-22T04:47:47.002Z,932.75
2018-07-22T04:48:47.072Z,932.70
2018-07-22T04:49:47.091Z,932.71
2018-07-22T04:50:47.120Z,932.69
2018-07-22T04:51:47.165Z,932.76
2018-07-22T04:52:47.246Z,932.72
2018-07-22T04:53:47.276Z,932.76
2018-07-22T04:54:47.514Z,932.68
2018-07-22T04:55:47.389Z,932.72
2018-07-22T04:56:47.405Z,932.69
2018-07-22T04:57:47.444Z,932.66
2018-07-22T04:58:47.544Z,932.68
2018-07-22T04:59:47.516Z,932.68
2018-07-22T05:00:47.556Z,932.66
2018-07-22T05:01:47.595Z,932.67
2018-07-22T05:02:47.661Z,932.69
2018-07-22T05:03:47.698Z,932.66
2018-07-22T05:04:47.745Z,932.67
2018-07-22T05:05:47.743Z,932.69
2018-07-22T05:06:47.865Z,932.67
2018-07-22T05:07:47.868Z,932.64
2018-07-22T05:08:47.918Z,932.64
2018-07-22T05:09:47.956Z,932.63
2018-07-22T05:10:47.980Z,932.61
2018-07-22T05:11:48.030Z,932.64
2018-07-22T05:12:48.084Z,932.60
2018-07-22T05:13:48.140Z,932.61
2018-07-22T05:14:48.160Z,932.65
2018-07-22T05:15:48.208Z,932.67
2018-07-22T05:16:48.314Z,932.61
2018-07-22T05:17:48.291Z,932.67
2018-07-22T05:18:48.328Z,932.66
2018-07-22T05:19:48.372Z,932.69
2018-07-22T05:20:48.435Z,932.70
2018-07-22T05:21:48.461Z,932.69
2018-07-22T05:22:48.512Z,932.69
2018-07-22T05:23:48.568Z,932.66
2018-07-22T05:24:48.599Z,932.68
2018-07-22T05:25:48.639Z,932.68
2018-07-22T05:26:48.733Z,932.65
2018-07-22T05:27:48.712Z,932.64
2018-07-22T05:28:48.766Z,932.72
2018-07-22T05:29:48.854Z,932.69
2018-07-22T05:30:48.844Z,932.64
2018-07-22T05:31:49.090Z,932.69
2018-07-22T05:32:48.918Z,932.64
2018-07-22T05:33:49.010Z,932.68
2018-07-22T05:34:49.033Z,932.67
2018-07-22T05:35:49.034Z,932.71
2018-07-22T05:36:49.139Z,932.70
2018-07-22T05:37:49.154Z,932.70
2018-07-22T05:38:49.176Z,932.72
2018-07-22T05:39:49.214Z,932.70
2018-07-22T05:40:49.281Z,932.70
2018-07-22T05:41:49.362Z,932.75
2018-07-22T05:42:49.363Z,932.73
2018-07-22T05:43:49.393Z,932.68
2018-07-22T05:44:49.434Z,932.70
2018-07-22T05:45:49.496Z,932.69
2018-07-22T05:46:49.530Z,932.69
2018-07-22T05:47:49.571Z,932.68
2018-07-22T05:48:49.644Z,932.67
2018-07-22T05:49:49.644Z,932.66
2018-07-22T05:50:49.692Z,932.65
2018-07-22T05:51:49.739Z,932.61
2018-07-22T05:52:49.797Z,932.60
2018-07-22T05:53:49.864Z,932.55
2018-07-22T05:54:49.911Z,932.57
2018-07-22T05:55:49.899Z,932.58
2018-07-22T05:56:49.956Z,932.58
2018-07-22T05:57:50.032Z,932.52
2018-07-22T05:58:50.297Z,932.57
2018-07-22T05:59:50.100Z,932.50
2018-07-22T06:00:50.116Z,932.45
2018-07-22T06:01:50.186Z,932.42
2018-07-22T06:02:50.210Z,932.48
2018-07-22T06:03:50.252Z,932.45
2018-07-22T06:04:50.300Z,932.42
2018-07-22T06:05:50.330Z,932.43
2018-07-22T06:06:50.375Z,932.42
2018-07-22T06:07:50.422Z,932.42
2018-07-22T06:08:50.476Z,932.41
2018-07-22T06:09:50.505Z,932.41
2018-07-22T06:10:50.574Z,932.51
2018-07-22T06:11:50.743Z,932.46
2018-07-22T06:12:50.639Z,932.51
2018-07-22T06:13:50.681Z,932.50
2018-07-22T06:14:50.936Z,932.52
2018-07-22T06:15:50.773Z,932.49
2018-07-22T06:16:50.816Z,932.42
2018-07-22T06:17:50.852Z,932.39
2018-07-22T06:18:50.916Z,932.40
2018-07-22T06:19:50.964Z,932.41
2018-07-22T06:20:50.990Z,932.37
2018-07-22T06:21:51.021Z,932.39
2018-07-22T06:22:51.108Z,932.41
2018-07-22T06:23:51.132Z,932.39
2018-07-22T06:24:51.183Z,932.39
2018-07-22T06:25:51.405Z,932.37
2018-07-22T06:26:51.220Z,932.35
2018-07-22T06:27:51.287Z,932.41
2018-07-22T06:28:51.318Z,932.39
2018-07-22T06:29:51.340Z,932.38
2018-07-22T06:30:51.409Z,932.40
2018-07-22T06:31:51.478Z,932.40
2018-07-22T06:32:51.458Z,932.36
2018-07-22T06:33:51.532Z,932.39
2018-07-22T06:34:51.555Z,932.42
2018-07-22T06:35:51.655Z,932.40
2018-07-22T06:36:51.879Z,932.38
2018-07-22T06:37:51.751Z,932.42
2018-07-22T06:38:51.761Z,932.38
2018-07-22T06:39:51.816Z,932.38
2018-07-22T06:40:51.848Z,932.48
2018-07-22T06:41:51.866Z,932.44
2018-07-22T06:42:51.921Z,932.46
2018-07-22T06:43:52.018Z,932.42
2018-07-22T06:44:52.024Z,932.45
2018-07-22T06:45:52.040Z,932.44
2018-07-22T06:46:52.091Z,932.45
2018-07-22T06:47:52.125Z,932.49
2018-07-22T06:48:52.393Z,932.52
2018-07-22T06:49:52.209Z,932.48
2018-07-22T06:50:52.289Z,932.49
2018-07-22T06:51:52.319Z,932.51
2018-07-22T06:52:52.331Z,932.49
2018-07-22T06:53:52.384Z,932.52
2018-07-22T06:54:52.480Z,932.52
2018-07-22T06:55:52.529Z,932.53
2018-07-22T06:56:52.514Z,932.51
2018-07-22T06:57:52.579Z,932.50
2018-07-22T06:58:52.591Z,932.55
2018-07-22T06:59:52.645Z,932.56
2018-07-22T07:00:53.012Z,932.55
2018-07-22T07:01:52.720Z,932.53
2018-07-22T07:02:52.791Z,932.52
2018-07-22T07:03:52.817Z,932.53
2018-07-22T07:04:52.942Z,932.55
2018-07-22T07:05:52.917Z,932.58
2018-07-22T07:06:52.915Z,932.57
2018-07-22T07:07:52.992Z,932.56
2018-07-22T07:08:53.070Z,932.55
2018-07-22T07:09:53.116Z,932.55
2018-07-22T07:10:53.139Z,932.53
2018-07-22T07:11:53.148Z,932.48
2018-07-22T07:12:53.239Z,932.47
2018-07-22T07:13:53.252Z,932.42
2018-07-22T07:14:53.293Z,932.37
2018-07-22T07:15:53.325Z,932.40
2018-07-22T07:16:53.351Z,932.38
2018-07-22T07:17:53.415Z,932.35
2018-07-22T07:18:53.460Z,932.31
2018-07-22T07:19:53.519Z,932.33
2018-07-22T07:20:53.575Z,932.30
2018-07-22T07:21:53.594Z,932.38
2018-07-22T07:22:53.607Z,932.36
2018-07-22T07:23:53.696Z,932.35
2018-07-22T07:24:53.701Z,932.35
2018-07-22T07:25:53.743Z,932.38
2018-07-22T07:26:53.819Z,932.38
2018-07-22T07:27:53.865Z,932.37
2018-07-22T07:28:53.870Z,932.36
2018-07-22T07:29:53.907Z,932.39
2018-07-22T07:30:54.195Z,932.40
2018-07-22T07:31:54.015Z,932.39
2018-07-22T07:32:54.040Z,932.40
2018-07-22T07:33:54.102Z,932.47
2018-07-22T07:34:54.129Z,932.45
2018-07-22T07:35:54.198Z,932.42
2018-07-22T07:36:54.203Z,932.40
2018-07-22T07:37:54.249Z,932.44
2018-07-22T07:38:54.277Z,932.43
2018-07-22T07:39:54.359Z,932.45
2018-07-22T07:40:54.391Z,932.42
2018-07-22T07:41:54.632Z,932.41
2018-07-22T07:42:54.449Z,932.44
2018-07-22T07:43:54.538Z,932.45
2018-07-22T07:44:54.557Z,932.48
2018-07-22T07:45:54.594Z,932.49
2018-07-22T07:46:54.622Z,932.50
2018-07-22T07:47:54.680Z,932.48
2018-07-22T07:48:54.718Z,932.50
2018-07-22T07:49:54.836Z,932.50
2018-07-22T07:50:54.836Z,932.52
2018-07-22T07:51:54.855Z,932.46
2018-07-22T07:52:55.082Z,932.47
2018-07-22T07:53:54.951Z,932.44
2018-07-22T07:54:54.986Z,932.45
2018-07-22T07:55:55.073Z,932.45
2018-07-22T07:56:55.052Z,932.43
2018-07-22T07:57:55.161Z,932.42
2018-07-22T07:58:55.145Z,932.45
2018-07-22T07:59:55.185Z,932.45
2018-07-22T08:00:55.245Z,932.49
2018-07-22T08:01:55.280Z,932.51
2018-07-22T08:02:55.352Z,932.55
2018-07-22T08:03:55.624Z,932.55
2018-07-22T08:04:55.397Z,932.55
2018-07-22T08:05:55.473Z,932.55
2018-07-22T08:06:55.496Z,932.55
2018-07-22T08:07:55.545Z,932.54
2018-07-22T08:08:55.569Z,932.56
2018-07-22T08:09:55.603Z,932.59
2018-07-22T08:10:55.679Z,932.54
2018-07-22T08:11:55.720Z,932.58
2018-07-22T08:12:55.742Z,932.59
2018-07-22T08:13:55.774Z,932.54
2018-07-22T08:14:56.078Z,932.56
2018-07-22T08:15:55.868Z,932.55
2018-07-22T08:16:55.930Z,932.54
2018-07-22T08:17:55.956Z,932.59
2018-07-22T08:18:56.440Z,932.60
2018-07-22T08:19:56.056Z,932.55
2018-07-22T08:20:56.071Z,932.61
2018-07-22T08:21:56.230Z,932.59
2018-07-22T08:22:56.141Z,932.62
2018-07-22T08:23:56.190Z,932.68
2018-07-22T08:24:56.278Z,932.69
2018-07-22T08:25:56.518Z,932.69
2018-07-22T08:26:56.343Z,932.64
2018-07-22T08:27:56.389Z,932.71
2018-07-22T08:28:56.422Z,932.72
2018-07-22T08:29:56.471Z,932.68
2018-07-22T08:30:56.505Z,932.71
2018-07-22T08:31:56.569Z,932.74
2018-07-22T08:32:56.608Z,932.77
2018-07-22T08:33:56.616Z,932.79
2018-07-22T08:34:56.724Z,932.80
2018-07-22T08:35:56.707Z,932.80
2018-07-22T08:36:57.014Z,932.85
2018-07-22T08:37:56.798Z,932.87
2018-07-22T08:38:56.878Z,932.89
2018-07-22T08:39:56.875Z,932.97
2018-07-22T08:40:56.920Z,932.94
2018-07-22T08:41:57.008Z,932.91
2018-07-22T08:42:57.020Z,932.99
2018-07-22T08:43:57.054Z,932.96
2018-07-22T08:44:57.100Z,933.01
2018-07-22T08:45:57.142Z,932.99
2018-07-22T08:46:57.200Z,933.03
2018-07-22T08:47:57.419Z,933.04
2018-07-22T08:48:57.282Z,933.03
2018-07-22T08:49:57.372Z,933.04
2018-07-22T08:50:57.360Z,933.07
2018-07-22T08:51:57.415Z,933.03
2018-07-22T08:52:57.450Z,933.00
2018-07-22T08:53:57.476Z,933.07
2018-07-22T08:54:57.509Z,933.14
2018-07-22T08:55:57.620Z,933.13
2018-07-22T08:56:57.610Z,933.16
2018-07-22T08:57:57.672Z,933.13
2018-07-22T08:58:57.757Z,933.11
2018-07-22T08:59:57.937Z,933.17
2018-07-22T09:00:57.770Z,933.16
2018-07-22T09:01:57.866Z,933.17
2018-07-22T09:02:57.850Z,933.12
2018-07-22T09:03:57.898Z,933.15
2018-07-22T09:04:57.963Z,933.13
2018-07-22T09:05:58.043Z,933.13
2018-07-22T09:06:58.016Z,933.13
2018-07-22T09:07:58.089Z,933.11
2018-07-22T09:08:58.111Z,933.22
2018-07-22T09:09:58.167Z,933.16
2018-07-22T09:10:58.262Z,933.22
2018-07-22T09:11:58.475Z,933.21
2018-07-22T09:12:58.295Z,933.21
2018-07-22T09:13:58.318Z,933.23
2018-07-22T09:14:58.362Z,933.25
2018-07-22T09:15:58.400Z,933.26
2018-07-22T09:16:58.460Z,933.26
2018-07-22T09:17:58.511Z,933.21
2018-07-22T09:18:58.563Z,933.25
2018-07-22T09:19:58.576Z,933.23
2018-07-22T09:20:58.610Z,933.26
2018-07-22T09:21:58.704Z,933.23
2018-07-22T09:22:58.722Z,933.30
2018-07-22T09:23:58.765Z,933.25
2018-07-22T09:24:58.836Z,933.26
2018-07-22T09:25:58.847Z,933.33
2018-07-22T09:26:58.952Z,933.36
2018-07-22T09:27:58.922Z,933.29
2018-07-22T09:28:58.966Z,933.32
2018-07-22T09:29:59.222Z,933.41
2018-07-22T09:30:59.032Z,933.42
2018-07-22T09:31:59.087Z,933.43
2018-07-22T09:32:59.140Z,933.41
2018-07-22T09:33:59.171Z,933.41
2018-07-22T09:34:59.244Z,933.42
2018-07-22T09:35:59.331Z,933.39
2018-07-22T09:36:59.283Z,933.47
2018-07-22T09:37:59.393Z,933.42
2018-07-22T09:38:59.370Z,933.47
2018-07-22T09:39:59.416Z,933.46
2018-07-22T09:40:59.681Z,933.49
2018-07-22T09:41:59.512Z,933.53
2018-07-22T09:42:59.576Z,933.50
2018-07-22T09:43:59.614Z,933.55
2018-07-22T09:44:59.656Z,933.55
2018-07-22T09:45:59.685Z,933.58
2018-07-22T09:46:59.751Z,933.55
2018-07-22T09:47:59.811Z,933.60
2018-07-22T09:48:59.810Z,933.60
2018-07-22T09:49:59.859Z,933.61
2018-07-22T09:50:59.890Z,933.63
2018-07-22T09:52:00.138Z,933.66
2018-07-22T09:52:59.975Z,933.69
2018-07-22T09:54:00.010Z,933.66
2018-07-22T09:55:00.069Z,933.62
2018-07-22T09:56:00.090Z,933.65
2018-07-22T09:57:00.137Z,933.66
2018-07-22T09:58:00.184Z,933.62
2018-07-22T09:59:00.242Z,933.58
2018-07-22T10:00:00.270Z,933.70
2018-07-22T10:01:00.302Z,933.74
2018-07-22T10:02:00.393Z,933.70
2018-07-22T10:03:00.391Z,933.69
2018-07-22T10:04:00.473Z,933.69
2018-07-22T10:05:00.484Z,933.73
2018-07-22T10:06:00.534Z,933.75
2018-07-22T10:07:00.580Z,933.72
2018-07-22T10:08:00.842Z,933.74
2018-07-22T10:09:00.702Z,933.73
2018-07-22T10:10:00.690Z,933.76
2018-07-22T10:11:00.749Z,933.81
2018-07-22T10:12:00.815Z,933.79
2018-07-22T10:13:00.834Z,933.81
2018-07-22T10:14:00.859Z,933.80
2018-07-22T10:15:00.946Z,933.79
2018-07-22T10:16:00.973Z,933.82
2018-07-22T10:17:00.998Z,933.78
2018-07-22T10:18:01.043Z,933.80
2018-07-22T10:19:01.064Z,933.83
2018-07-22T10:20:01.129Z,933.84
2018-07-22T10:21:01.143Z,933.83
2018-07-22T10:22:01.196Z,933.87
2018-07-22T10:23:01.450Z,933.84
2018-07-22T10:24:01.296Z,933.85
2018-07-22T10:25:01.347Z,933.85
2018-07-22T10:26:01.391Z,933.89
2018-07-22T10:27:01.426Z,933.89
2018-07-22T10:28:01.455Z,933.90
2018-07-22T10:29:01.518Z,933.97
2018-07-22T10:30:01.553Z,933.93
2018-07-22T10:31:01.595Z,933.93
2018-07-22T10:32:01.617Z,934.02
2018-07-22T10:33:01.665Z,934.09
2018-07-22T10:34:01.907Z,934.07
2018-07-22T10:35:01.790Z,934.05
2018-07-22T10:36:01.801Z,934.09
2018-07-22T10:37:01.825Z,934.08
2018-07-22T10:38:01.889Z,934.12
2018-07-22T10:39:01.986Z,934.18
2018-07-22T10:40:01.969Z,934.17
2018-07-22T10:41:02.060Z,934.18
2018-07-22T10:42:02.062Z,934.19
2018-07-22T10:43:02.141Z,934.22
2018-07-22T10:44:02.155Z,934.19
2018-07-22T10:45:02.176Z,934.24
2018-07-22T10:46:02.203Z,934.22
2018-07-22T10:47:02.277Z,934.19
2018-07-22T10:48:02.311Z,934.27
2018-07-22T10:49:02.360Z,934.28
2018-07-22T10:50:02.658Z,934.23
2018-07-22T10:51:02.429Z,934.24
2018-07-22T10:52:02.466Z,934.30
2018-07-22T10:53:02.515Z,934.31
2018-07-22T10:54:02.573Z,934.35
2018-07-22T10:55:02.634Z,934.30
2018-07-22T10:56:02.698Z,934.37
2018-07-22T10:57:02.689Z,934.37
2018-07-22T10:58:02.734Z,934.37
2018-07-22T10:59:02.781Z,934.37
2018-07-22T11:00:02.812Z,934.45
2018-07-22T11:01:03.105Z,934.41
2018-07-22T11:02:02.921Z,934.44
2018-07-22T11:03:02.964Z,934.41
2018-07-22T11:04:02.975Z,934.41
2018-07-22T11:05:03.058Z,934.37
2018-07-22T11:06:03.142Z,934.38
2018-07-22T11:07:03.148Z,934.37
2018-07-22T11:08:03.199Z,934.38
2018-07-22T11:09:03.223Z,934.42
2018-07-22T11:10:03.298Z,934.39
2018-07-22T11:11:03.309Z,934.36
2018-07-22T11:12:03.352Z,934.33
2018-07-22T11:13:03.394Z,934.42
2018-07-22T11:14:03.427Z,934.38
2018-07-22T11:15:03.471Z,934.38
2018-07-22T11:16:03.552Z,934.37
2018-07-22T11:17:03.561Z,934.31
2018-07-22T11:18:03.602Z,934.34
2018-07-22T11:19:03.642Z,934.38
2018-07-22T11:20:03.685Z,934.33
2018-07-22T11:21:03.782Z,934.37
2018-07-22T11:22:03.758Z,934.39
2018-07-22T11:23:03.814Z,934.35
2018-07-22T11:24:03.875Z,934.38
2018-07-22T11:25:03.900Z,934.41
2018-07-22T11:26:03.965Z,934.43
2018-07-22T11:27:04.254Z,934.41
2018-07-22T11:28:04.049Z,934.43
2018-07-22T11:29:04.109Z,934.47
2018-07-22T11:30:04.138Z,934.46
2018-07-22T11:31:04.179Z,934.48
2018-07-22T11:32:04.209Z,934.54
2018-07-22T11:33:04.256Z,934.53
2018-07-22T11:34:04.296Z,934.54
2018-07-22T11:35:04.367Z,934.49
2018-07-22T11:36:04.439Z,934.57
2018-07-22T11:37:04.426Z,934.53
2018-07-22T11:38:04.484Z,934.55
2018-07-22T11:39:04.525Z,934.60
2018-07-22T11:40:04.558Z,934.64
2018-07-22T11:41:04.605Z,934.66
2018-07-22T11:42:04.634Z,934.69
2018-07-22T11:43:04.696Z,934.71
2018-07-22T11:44:04.799Z,934.76
2018-07-22T11:45:04.795Z,934.78
2018-07-22T11:46:05.040Z,934.78
2018-07-22T11:47:04.855Z,934.78
2018-07-22T11:48:04.934Z,934.81
2018-07-22T11:49:04.973Z,934.85
2018-07-22T11:50:04.992Z,934.92
2018-07-22T11:51:05.030Z,934.92
2018-07-22T11:52:05.108Z,934.94
2018-07-22T11:53:05.144Z,935.00
2018-07-22T11:54:05.181Z,934.97
2018-07-22T11:55:05.205Z,934.93
2018-07-22T11:56:05.291Z,935.01
2018-07-22T11:57:05.300Z,935.04
2018-07-22T11:58:05.339Z,935.07
2018-07-22T11:59:05.437Z,935.09
2018-07-22T12:00:05.497Z,935.11
2018-07-22T12:01:05.494Z,935.12
2018-07-22T12:02:05.531Z,935.14
2018-07-22T12:03:05.612Z,935.15
2018-07-22T12:04:05.650Z,935.15
2018-07-22T12:05:05.668Z,935.19
2018-07-22T12:06:05.729Z,935.18
2018-07-22T12:07:05.767Z,935.15
2018-07-22T12:08:05.815Z,935.13
2018-07-22T12:09:05.831Z,935.19
2018-07-22T12:10:05.947Z,935.18
2018-07-22T12:11:05.964Z,935.18
2018-07-22T12:12:06.022Z,935.20
2018-07-22T12:13:06.026Z,935.20
2018-07-22T12:14:06.088Z,935.19
2018-07-22T12:15:06.166Z,935.22
2018-07-22T12:16:06.186Z,935.23
2018-07-22T12:17:06.212Z,935.24
2018-07-22T12:18:06.267Z,935.22
2018-07-22T12:19:06.316Z,935.17
2018-07-22T12:20:06.362Z,935.18
2018-07-22T12:21:06.372Z,935.23
2018-07-22T12:22:06.421Z,935.24
2018-07-22T12:23:06.746Z,935.27
2018-07-22T12:24:06.524Z,935.20
2018-07-22T12:25:06.592Z,935.25
2018-07-22T12:26:06.674Z,935.28
2018-07-22T12:27:06.698Z,935.27
2018-07-22T12:28:06.744Z,935.28
2018-07-22T12:29:06.783Z,935.22